sensor_id;sensor_type;location;lat;lon;timestamp;P1;durP1;ratioP1;P2;durP2;ratioP2
19593;SDS011;9944;48.240;16.478;2022-10-17T00:01:01;19.30;;;11.52;;
19593;SDS011;9944;48.240;16.478;2022-10-17T00:05:06;22.05;;;13.15;;
19593;SDS011;9944;48.240;16.478;2022-10-17T00:09:09;19.13;;;11.80;;
19593;SDS011;9944;48.240;16.478;2022-10-17T00:13:13;21.88;;;12.35;;
19593;SDS011;9944;48.240;16.478;2022-10-17T00:17:16;22.63;;;13.60;;
19593;SDS011;9944;48.240;16.478;2022-10-17T00:21:20;22.35;;;12.68;;
19593;SDS011;9944;48.240;16.478;2022-10-17T00:25:23;25.85;;;13.38;;
19593;SDS011;9944;48.240;16.478;2022-10-17T00:29:28;23.85;;;13.23;;
19593;SDS011;9944;48.240;16.478;2022-10-17T00:33:31;20.45;;;12.60;;
19593;SDS011;9944;48.240;16.478;2022-10-17T00:37:35;20.30;;;12.40;;
19593;SDS011;9944;48.240;16.478;2022-10-17T00:41:38;21.30;;;12.63;;
19593;SDS011;9944;48.240;16.478;2022-10-17T00:45:43;20.73;;;12.70;;
19593;SDS011;9944;48.240;16.478;2022-10-17T00:49:46;23.02;;;12.68;;
19593;SDS011;9944;48.240;16.478;2022-10-17T00:53:50;24.13;;;13.40;;
19593;SDS011;9944;48.240;16.478;2022-10-17T00:57:53;21.63;;;12.48;;
19593;SDS011;9944;48.240;16.478;2022-10-17T01:02:00;21.00;;;12.60;;
19593;SDS011;9944;48.240;16.478;2022-10-17T01:06:05;21.55;;;12.38;;
19593;SDS011;9944;48.240;16.478;2022-10-17T01:10:08;21.52;;;13.45;;
19593;SDS011;9944;48.240;16.478;2022-10-17T01:14:17;21.33;;;12.38;;
19593;SDS011;9944;48.240;16.478;2022-10-17T01:18:34;23.23;;;12.73;;
19593;SDS011;9944;48.240;16.478;2022-10-17T01:22:48;19.88;;;12.07;;
19593;SDS011;9944;48.240;16.478;2022-10-17T01:27:12;22.05;;;12.23;;
19593;SDS011;9944;48.240;16.478;2022-10-17T01:31:38;23.75;;;13.20;;
19593;SDS011;9944;48.240;16.478;2022-10-17T01:35:50;20.88;;;12.35;;
19593;SDS011;9944;48.240;16.478;2022-10-17T01:40:01;22.65;;;12.90;;
19593;SDS011;9944;48.240;16.478;2022-10-17T01:44:10;19.98;;;11.82;;
19593;SDS011;9944;48.240;16.478;2022-10-17T01:52:46;20.50;;;11.98;;
19593;SDS011;9944;48.240;16.478;2022-10-17T01:56:55;22.42;;;12.48;;
19593;SDS011;9944;48.240;16.478;2022-10-17T02:01:02;20.95;;;12.45;;
19593;SDS011;9944;48.240;16.478;2022-10-17T02:05:09;20.83;;;12.05;;
19593;SDS011;9944;48.240;16.478;2022-10-17T02:09:18;20.55;;;12.00;;
19593;SDS011;9944;48.240;16.478;2022-10-17T02:13:26;20.92;;;12.15;;
19593;SDS011;9944;48.240;16.478;2022-10-17T02:17:43;20.48;;;11.73;;
19593;SDS011;9944;48.240;16.478;2022-10-17T02:22:03;21.50;;;11.85;;
19593;SDS011;9944;48.240;16.478;2022-10-17T02:26:15;18.83;;;11.65;;
19593;SDS011;9944;48.240;16.478;2022-10-17T02:30:26;20.58;;;11.43;;
19593;SDS011;9944;48.240;16.478;2022-10-17T02:34:37;17.08;;;11.30;;
19593;SDS011;9944;48.240;16.478;2022-10-17T02:38:47;19.13;;;10.55;;
19593;SDS011;9944;48.240;16.478;2022-10-17T02:42:52;18.23;;;10.98;;
19593;SDS011;9944;48.240;16.478;2022-10-17T02:46:58;21.00;;;11.13;;
19593;SDS011;9944;48.240;16.478;2022-10-17T02:51:09;16.50;;;10.57;;
19593;SDS011;9944;48.240;16.478;2022-10-17T02:55:22;17.40;;;10.40;;
19593;SDS011;9944;48.240;16.478;2022-10-17T02:59:31;17.52;;;10.85;;
19593;SDS011;9944;48.240;16.478;2022-10-17T03:03:36;18.15;;;10.73;;
19593;SDS011;9944;48.240;16.478;2022-10-17T03:07:39;18.60;;;10.50;;
19593;SDS011;9944;48.240;16.478;2022-10-17T03:11:43;18.50;;;11.13;;
19593;SDS011;9944;48.240;16.478;2022-10-17T03:15:46;16.45;;;9.85;;
19593;SDS011;9944;48.240;16.478;2022-10-17T03:19:50;16.85;;;10.60;;
19593;SDS011;9944;48.240;16.478;2022-10-17T03:23:53;17.85;;;10.63;;
19593;SDS011;9944;48.240;16.478;2022-10-17T03:27:58;17.73;;;9.90;;
19593;SDS011;9944;48.240;16.478;2022-10-17T03:32:02;18.27;;;10.30;;
19593;SDS011;9944;48.240;16.478;2022-10-17T03:36:05;15.35;;;9.75;;
19593;SDS011;9944;48.240;16.478;2022-10-17T03:40:10;16.58;;;10.30;;
19593;SDS011;9944;48.240;16.478;2022-10-17T03:44:14;18.88;;;10.57;;
19593;SDS011;9944;48.240;16.478;2022-10-17T03:48:17;17.75;;;11.07;;
19593;SDS011;9944;48.240;16.478;2022-10-17T03:52:20;18.00;;;10.45;;
19593;SDS011;9944;48.240;16.478;2022-10-17T03:56:25;18.67;;;11.23;;
19593;SDS011;9944;48.240;16.478;2022-10-17T04:00:39;16.05;;;10.40;;
19593;SDS011;9944;48.240;16.478;2022-10-17T04:04:42;20.70;;;11.88;;
19593;SDS011;9944;48.240;16.478;2022-10-17T04:08:45;19.60;;;11.30;;
19593;SDS011;9944;48.240;16.478;2022-10-17T04:12:59;18.23;;;10.50;;
19593;SDS011;9944;48.240;16.478;2022-10-17T04:17:03;20.13;;;11.20;;
19593;SDS011;9944;48.240;16.478;2022-10-17T04:21:08;19.17;;;11.27;;
19593;SDS011;9944;48.240;16.478;2022-10-17T04:25:11;16.40;;;10.15;;
19593;SDS011;9944;48.240;16.478;2022-10-17T04:29:18;17.38;;;10.45;;
19593;SDS011;9944;48.240;16.478;2022-10-17T04:33:25;19.92;;;11.82;;
19593;SDS011;9944;48.240;16.478;2022-10-17T04:37:28;17.65;;;10.18;;
19593;SDS011;9944;48.240;16.478;2022-10-17T04:41:35;18.17;;;10.95;;
19593;SDS011;9944;48.240;16.478;2022-10-17T04:45:38;16.08;;;10.25;;
19593;SDS011;9944;48.240;16.478;2022-10-17T04:49:43;17.23;;;10.15;;
19593;SDS011;9944;48.240;16.478;2022-10-17T04:53:48;17.45;;;10.30;;
19593;SDS011;9944;48.240;16.478;2022-10-17T04:57:51;14.55;;;9.20;;
19593;SDS011;9944;48.240;16.478;2022-10-17T05:01:55;14.60;;;9.07;;
19593;SDS011;9944;48.240;16.478;2022-10-17T05:06:03;16.85;;;9.43;;
19593;SDS011;9944;48.240;16.478;2022-10-17T05:10:07;15.68;;;9.27;;
19593;SDS011;9944;48.240;16.478;2022-10-17T05:14:13;13.48;;;8.40;;
19593;SDS011;9944;48.240;16.478;2022-10-17T05:18:17;13.52;;;8.90;;
19593;SDS011;9944;48.240;16.478;2022-10-17T05:22:21;15.20;;;9.13;;
19593;SDS011;9944;48.240;16.478;2022-10-17T05:26:25;13.00;;;8.25;;
19593;SDS011;9944;48.240;16.478;2022-10-17T05:30:28;12.90;;;8.32;;
19593;SDS011;9944;48.240;16.478;2022-10-17T05:34:40;13.05;;;8.10;;
19593;SDS011;9944;48.240;16.478;2022-10-17T05:38:48;17.98;;;8.88;;
19593;SDS011;9944;48.240;16.478;2022-10-17T05:42:52;12.63;;;7.78;;
19593;SDS011;9944;48.240;16.478;2022-10-17T05:46:56;14.25;;;7.93;;
19593;SDS011;9944;48.240;16.478;2022-10-17T05:51:01;12.77;;;8.43;;
19593;SDS011;9944;48.240;16.478;2022-10-17T05:55:08;11.68;;;7.30;;
19593;SDS011;9944;48.240;16.478;2022-10-17T05:59:13;11.95;;;7.32;;
19593;SDS011;9944;48.240;16.478;2022-10-17T06:03:25;12.43;;;7.68;;
19593;SDS011;9944;48.240;16.478;2022-10-17T06:07:28;11.32;;;7.35;;
19593;SDS011;9944;48.240;16.478;2022-10-17T06:11:33;12.82;;;7.05;;
19593;SDS011;9944;48.240;16.478;2022-10-17T06:15:39;11.90;;;6.82;;
19593;SDS011;9944;48.240;16.478;2022-10-17T06:19:43;10.57;;;7.10;;
19593;SDS011;9944;48.240;16.478;2022-10-17T06:23:48;11.30;;;6.85;;
19593;SDS011;9944;48.240;16.478;2022-10-17T06:28:02;11.27;;;7.00;;
19593;SDS011;9944;48.240;16.478;2022-10-17T06:32:05;11.10;;;6.85;;
19593;SDS011;9944;48.240;16.478;2022-10-17T06:36:15;10.13;;;6.25;;
19593;SDS011;9944;48.240;16.478;2022-10-17T06:40:20;10.95;;;7.05;;
19593;SDS011;9944;48.240;16.478;2022-10-17T06:44:25;9.88;;;6.32;;
19593;SDS011;9944;48.240;16.478;2022-10-17T06:48:49;11.63;;;7.20;;
19593;SDS011;9944;48.240;16.478;2022-10-17T06:53:03;9.95;;;6.72;;
19593;SDS011;9944;48.240;16.478;2022-10-17T06:57:20;11.50;;;7.28;;
19593;SDS011;9944;48.240;16.478;2022-10-17T07:01:29;13.27;;;6.95;;
19593;SDS011;9944;48.240;16.478;2022-10-17T07:05:36;13.43;;;7.88;;
19593;SDS011;9944;48.240;16.478;2022-10-17T07:09:39;13.85;;;7.55;;
19593;SDS011;9944;48.240;16.478;2022-10-17T07:13:43;13.25;;;8.32;;
19593;SDS011;9944;48.240;16.478;2022-10-17T07:17:49;11.32;;;7.43;;
19593;SDS011;9944;48.240;16.478;2022-10-17T07:21:53;12.75;;;7.65;;
19593;SDS011;9944;48.240;16.478;2022-10-17T07:25:58;12.73;;;8.50;;
19593;SDS011;9944;48.240;16.478;2022-10-17T07:30:03;13.98;;;8.68;;
19593;SDS011;9944;48.240;16.478;2022-10-17T07:34:15;14.95;;;9.38;;
19593;SDS011;9944;48.240;16.478;2022-10-17T07:38:18;15.63;;;9.27;;
19593;SDS011;9944;48.240;16.478;2022-10-17T07:42:22;14.93;;;9.02;;
19593;SDS011;9944;48.240;16.478;2022-10-17T07:46:27;19.08;;;9.02;;
19593;SDS011;9944;48.240;16.478;2022-10-17T07:50:31;14.10;;;8.55;;
19593;SDS011;9944;48.240;16.478;2022-10-17T07:54:34;14.63;;;9.10;;
19593;SDS011;9944;48.240;16.478;2022-10-17T07:58:38;17.95;;;9.98;;
19593;SDS011;9944;48.240;16.478;2022-10-17T08:02:41;15.95;;;9.35;;
19593;SDS011;9944;48.240;16.478;2022-10-17T08:06:45;16.38;;;9.68;;
19593;SDS011;9944;48.240;16.478;2022-10-17T08:10:53;16.67;;;9.82;;
19593;SDS011;9944;48.240;16.478;2022-10-17T08:14:57;16.30;;;9.60;;
19593;SDS011;9944;48.240;16.478;2022-10-17T08:19:00;15.45;;;9.70;;
19593;SDS011;9944;48.240;16.478;2022-10-17T08:23:05;17.88;;;9.77;;
19593;SDS011;9944;48.240;16.478;2022-10-17T08:27:08;17.13;;;9.07;;
19593;SDS011;9944;48.240;16.478;2022-10-17T08:31:14;14.85;;;8.90;;
19593;SDS011;9944;48.240;16.478;2022-10-17T08:35:19;21.45;;;9.18;;
19593;SDS011;9944;48.240;16.478;2022-10-17T08:39:24;15.75;;;9.13;;
19593;SDS011;9944;48.240;16.478;2022-10-17T08:43:29;14.77;;;8.95;;
19593;SDS011;9944;48.240;16.478;2022-10-17T08:47:41;14.88;;;9.10;;
19593;SDS011;9944;48.240;16.478;2022-10-17T08:51:48;15.88;;;8.55;;
19593;SDS011;9944;48.240;16.478;2022-10-17T08:55:58;16.13;;;9.13;;
19593;SDS011;9944;48.240;16.478;2022-10-17T09:00:12;14.05;;;8.80;;
19593;SDS011;9944;48.240;16.478;2022-10-17T09:04:28;15.45;;;8.80;;
19593;SDS011;9944;48.240;16.478;2022-10-17T09:08:50;16.35;;;9.45;;
19593;SDS011;9944;48.240;16.478;2022-10-17T09:13:09;18.00;;;9.70;;
19593;SDS011;9944;48.240;16.478;2022-10-17T09:17:26;16.63;;;9.38;;
19593;SDS011;9944;48.240;16.478;2022-10-17T09:21:39;15.77;;;9.25;;
19593;SDS011;9944;48.240;16.478;2022-10-17T09:25:45;16.83;;;10.02;;
19593;SDS011;9944;48.240;16.478;2022-10-17T09:29:53;15.73;;;9.25;;
19593;SDS011;9944;48.240;16.478;2022-10-17T09:34:07;15.93;;;9.38;;
19593;SDS011;9944;48.240;16.478;2022-10-17T09:38:14;16.50;;;9.23;;
19593;SDS011;9944;48.240;16.478;2022-10-17T09:42:24;16.55;;;9.90;;
19593;SDS011;9944;48.240;16.478;2022-10-17T09:46:31;14.00;;;8.40;;
19593;SDS011;9944;48.240;16.478;2022-10-17T09:50:38;16.35;;;8.95;;
19593;SDS011;9944;48.240;16.478;2022-10-17T09:54:44;13.15;;;8.35;;
19593;SDS011;9944;48.240;16.478;2022-10-17T09:58:50;14.07;;;8.45;;
19593;SDS011;9944;48.240;16.478;2022-10-17T10:03:09;16.02;;;9.43;;
19593;SDS011;9944;48.240;16.478;2022-10-17T10:07:16;12.93;;;8.82;;
19593;SDS011;9944;48.240;16.478;2022-10-17T10:11:24;14.45;;;8.82;;
19593;SDS011;9944;48.240;16.478;2022-10-17T10:15:45;11.88;;;8.27;;
19593;SDS011;9944;48.240;16.478;2022-10-17T10:19:51;13.15;;;8.05;;
19593;SDS011;9944;48.240;16.478;2022-10-17T10:24:04;15.98;;;9.18;;
19593;SDS011;9944;48.240;16.478;2022-10-17T10:28:13;11.15;;;7.70;;
19593;SDS011;9944;48.240;16.478;2022-10-17T10:32:19;12.43;;;7.90;;
19593;SDS011;9944;48.240;16.478;2022-10-17T10:36:40;12.88;;;7.75;;
19593;SDS011;9944;48.240;16.478;2022-10-17T10:40:49;12.43;;;8.15;;
19593;SDS011;9944;48.240;16.478;2022-10-17T10:44:55;11.43;;;7.65;;
19593;SDS011;9944;48.240;16.478;2022-10-17T10:49:00;14.90;;;7.28;;
19593;SDS011;9944;48.240;16.478;2022-10-17T10:53:11;11.93;;;7.40;;
19593;SDS011;9944;48.240;16.478;2022-10-17T10:57:22;10.00;;;7.00;;
19593;SDS011;9944;48.240;16.478;2022-10-17T11:01:33;11.57;;;7.65;;
19593;SDS011;9944;48.240;16.478;2022-10-17T11:05:44;12.02;;;7.50;;
19593;SDS011;9944;48.240;16.478;2022-10-17T11:09:53;12.20;;;7.28;;
19593;SDS011;9944;48.240;16.478;2022-10-17T11:14:00;12.00;;;7.25;;
19593;SDS011;9944;48.240;16.478;2022-10-17T11:18:15;11.23;;;6.93;;
19593;SDS011;9944;48.240;16.478;2022-10-17T11:22:25;12.30;;;7.63;;
19593;SDS011;9944;48.240;16.478;2022-10-17T11:26:36;13.35;;;7.18;;
19593;SDS011;9944;48.240;16.478;2022-10-17T11:30:45;11.18;;;7.50;;
19593;SDS011;9944;48.240;16.478;2022-10-17T11:34:53;10.07;;;7.18;;
19593;SDS011;9944;48.240;16.478;2022-10-17T11:39:00;11.20;;;7.32;;
19593;SDS011;9944;48.240;16.478;2022-10-17T11:43:09;13.43;;;6.72;;
19593;SDS011;9944;48.240;16.478;2022-10-17T11:47:21;11.27;;;7.35;;
19593;SDS011;9944;48.240;16.478;2022-10-17T11:51:36;10.80;;;7.20;;
19593;SDS011;9944;48.240;16.478;2022-10-17T11:56:02;11.02;;;6.95;;
19593;SDS011;9944;48.240;16.478;2022-10-17T12:00:11;9.73;;;6.88;;
19593;SDS011;9944;48.240;16.478;2022-10-17T12:04:35;10.68;;;6.93;;
19593;SDS011;9944;48.240;16.478;2022-10-17T12:08:51;10.55;;;6.95;;
19593;SDS011;9944;48.240;16.478;2022-10-17T12:17:37;10.18;;;7.13;;
19593;SDS011;9944;48.240;16.478;2022-10-17T12:21:58;10.50;;;6.80;;
19593;SDS011;9944;48.240;16.478;2022-10-17T12:26:05;9.82;;;6.50;;
19593;SDS011;9944;48.240;16.478;2022-10-17T12:30:17;8.07;;;6.40;;
19593;SDS011;9944;48.240;16.478;2022-10-17T12:34:23;10.63;;;6.65;;
19593;SDS011;9944;48.240;16.478;2022-10-17T12:38:27;9.05;;;5.82;;
19593;SDS011;9944;48.240;16.478;2022-10-17T12:42:46;8.90;;;6.05;;
19593;SDS011;9944;48.240;16.478;2022-10-17T12:46:51;10.70;;;6.07;;
19593;SDS011;9944;48.240;16.478;2022-10-17T12:51:03;8.90;;;6.70;;
19593;SDS011;9944;48.240;16.478;2022-10-17T12:55:28;9.60;;;6.55;;
19593;SDS011;9944;48.240;16.478;2022-10-17T12:59:31;11.18;;;6.97;;
19593;SDS011;9944;48.240;16.478;2022-10-17T13:03:41;10.10;;;6.20;;
19593;SDS011;9944;48.240;16.478;2022-10-17T13:07:47;12.95;;;6.68;;
19593;SDS011;9944;48.240;16.478;2022-10-17T13:11:51;9.15;;;6.40;;
19593;SDS011;9944;48.240;16.478;2022-10-17T13:15:55;7.88;;;6.20;;
19593;SDS011;9944;48.240;16.478;2022-10-17T13:19:58;11.25;;;6.80;;
19593;SDS011;9944;48.240;16.478;2022-10-17T13:28:24;9.68;;;6.43;;
19593;SDS011;9944;48.240;16.478;2022-10-17T13:32:33;7.93;;;6.10;;
19593;SDS011;9944;48.240;16.478;2022-10-17T13:36:38;8.38;;;6.20;;
19593;SDS011;9944;48.240;16.478;2022-10-17T13:40:50;10.70;;;6.38;;
19593;SDS011;9944;48.240;16.478;2022-10-17T13:45:09;8.65;;;6.15;;
19593;SDS011;9944;48.240;16.478;2022-10-17T13:49:21;9.82;;;6.95;;
19593;SDS011;9944;48.240;16.478;2022-10-17T13:53:32;11.77;;;6.82;;
19593;SDS011;9944;48.240;16.478;2022-10-17T13:57:38;10.52;;;6.60;;
19593;SDS011;9944;48.240;16.478;2022-10-17T14:01:41;9.95;;;6.82;;
19593;SDS011;9944;48.240;16.478;2022-10-17T14:05:57;10.73;;;6.50;;
19593;SDS011;9944;48.240;16.478;2022-10-17T14:10:04;12.00;;;6.72;;
19593;SDS011;9944;48.240;16.478;2022-10-17T14:14:21;10.60;;;7.05;;
19593;SDS011;9944;48.240;16.478;2022-10-17T14:18:27;9.77;;;7.10;;
19593;SDS011;9944;48.240;16.478;2022-10-17T14:22:36;9.95;;;6.70;;
19593;SDS011;9944;48.240;16.478;2022-10-17T14:26:48;10.18;;;6.50;;
19593;SDS011;9944;48.240;16.478;2022-10-17T14:31:08;10.32;;;6.30;;
19593;SDS011;9944;48.240;16.478;2022-10-17T14:35:20;8.32;;;6.00;;
19593;SDS011;9944;48.240;16.478;2022-10-17T14:39:42;8.18;;;5.10;;
19593;SDS011;9944;48.240;16.478;2022-10-17T14:43:51;7.82;;;5.38;;
19593;SDS011;9944;48.240;16.478;2022-10-17T14:47:59;10.25;;;5.53;;
19593;SDS011;9944;48.240;16.478;2022-10-17T14:56:35;12.82;;;5.65;;
19593;SDS011;9944;48.240;16.478;2022-10-17T15:00:40;7.80;;;5.40;;
19593;SDS011;9944;48.240;16.478;2022-10-17T15:04:45;6.60;;;4.88;;
19593;SDS011;9944;48.240;16.478;2022-10-17T15:08:48;7.72;;;4.90;;
19593;SDS011;9944;48.240;16.478;2022-10-17T15:12:51;6.80;;;4.97;;
19593;SDS011;9944;48.240;16.478;2022-10-17T15:17:14;6.97;;;4.57;;
19593;SDS011;9944;48.240;16.478;2022-10-17T15:21:20;9.50;;;5.18;;
19593;SDS011;9944;48.240;16.478;2022-10-17T15:25:42;5.13;;;4.45;;
19593;SDS011;9944;48.240;16.478;2022-10-17T15:29:46;5.78;;;4.03;;
19593;SDS011;9944;48.240;16.478;2022-10-17T15:33:50;6.70;;;4.15;;
19593;SDS011;9944;48.240;16.478;2022-10-17T15:37:54;5.93;;;4.57;;
19593;SDS011;9944;48.240;16.478;2022-10-17T15:41:57;8.43;;;4.30;;
19593;SDS011;9944;48.240;16.478;2022-10-17T15:46:01;5.10;;;4.20;;
19593;SDS011;9944;48.240;16.478;2022-10-17T15:50:05;6.35;;;4.40;;
19593;SDS011;9944;48.240;16.478;2022-10-17T15:54:10;6.00;;;4.50;;
19593;SDS011;9944;48.240;16.478;2022-10-17T15:58:18;5.57;;;4.10;;
19593;SDS011;9944;48.240;16.478;2022-10-17T16:02:22;7.60;;;4.22;;
19593;SDS011;9944;48.240;16.478;2022-10-17T16:06:25;6.28;;;4.40;;
19593;SDS011;9944;48.240;16.478;2022-10-17T16:10:30;5.00;;;4.15;;
19593;SDS011;9944;48.240;16.478;2022-10-17T16:14:33;5.10;;;3.85;;
19593;SDS011;9944;48.240;16.478;2022-10-17T16:18:36;5.50;;;4.35;;
19593;SDS011;9944;48.240;16.478;2022-10-17T16:22:40;5.18;;;3.95;;
19593;SDS011;9944;48.240;16.478;2022-10-17T16:26:46;5.47;;;4.00;;
19593;SDS011;9944;48.240;16.478;2022-10-17T16:30:49;5.53;;;3.70;;
19593;SDS011;9944;48.240;16.478;2022-10-17T16:34:52;8.13;;;3.72;;
19593;SDS011;9944;48.240;16.478;2022-10-17T16:38:55;5.22;;;3.42;;
19593;SDS011;9944;48.240;16.478;2022-10-17T16:43:00;5.10;;;3.50;;
19593;SDS011;9944;48.240;16.478;2022-10-17T16:47:03;4.20;;;3.60;;
19593;SDS011;9944;48.240;16.478;2022-10-17T16:51:06;4.32;;;3.08;;
19593;SDS011;9944;48.240;16.478;2022-10-17T16:55:09;5.07;;;3.53;;
19593;SDS011;9944;48.240;16.478;2022-10-17T16:59:14;7.57;;;3.30;;
19593;SDS011;9944;48.240;16.478;2022-10-17T17:03:17;5.05;;;3.22;;
19593;SDS011;9944;48.240;16.478;2022-10-17T17:07:20;4.15;;;3.30;;
19593;SDS011;9944;48.240;16.478;2022-10-17T17:11:25;5.30;;;3.20;;
19593;SDS011;9944;48.240;16.478;2022-10-17T17:15:31;6.07;;;3.58;;
19593;SDS011;9944;48.240;16.478;2022-10-17T17:19:34;4.55;;;3.25;;
19593;SDS011;9944;48.240;16.478;2022-10-17T17:23:38;5.10;;;3.35;;
19593;SDS011;9944;48.240;16.478;2022-10-17T17:27:42;4.05;;;3.10;;
19593;SDS011;9944;48.240;16.478;2022-10-17T17:31:47;3.88;;;3.00;;
19593;SDS011;9944;48.240;16.478;2022-10-17T17:35:53;5.55;;;3.58;;
19593;SDS011;9944;48.240;16.478;2022-10-17T17:39:56;4.05;;;2.90;;
19593;SDS011;9944;48.240;16.478;2022-10-17T17:43:59;3.90;;;3.28;;
19593;SDS011;9944;48.240;16.478;2022-10-17T17:48:05;5.00;;;3.45;;
19593;SDS011;9944;48.240;16.478;2022-10-17T17:52:08;4.85;;;3.10;;
19593;SDS011;9944;48.240;16.478;2022-10-17T17:56:12;3.45;;;3.05;;
19593;SDS011;9944;48.240;16.478;2022-10-17T18:00:16;4.35;;;3.55;;
19593;SDS011;9944;48.240;16.478;2022-10-17T18:04:21;4.05;;;3.25;;
19593;SDS011;9944;48.240;16.478;2022-10-17T18:08:24;4.60;;;3.17;;
19593;SDS011;9944;48.240;16.478;2022-10-17T18:12:27;6.95;;;3.45;;
19593;SDS011;9944;48.240;16.478;2022-10-17T18:16:31;5.22;;;3.80;;
19593;SDS011;9944;48.240;16.478;2022-10-17T18:20:39;7.97;;;3.85;;
19593;SDS011;9944;48.240;16.478;2022-10-17T18:24:43;3.97;;;3.50;;
19593;SDS011;9944;48.240;16.478;2022-10-17T18:28:46;5.03;;;3.60;;
19593;SDS011;9944;48.240;16.478;2022-10-17T18:32:49;5.57;;;3.78;;
19593;SDS011;9944;48.240;16.478;2022-10-17T18:36:54;6.90;;;3.63;;
19593;SDS011;9944;48.240;16.478;2022-10-17T18:41:01;5.35;;;3.75;;
19593;SDS011;9944;48.240;16.478;2022-10-17T18:45:06;5.32;;;4.00;;
19593;SDS011;9944;48.240;16.478;2022-10-17T18:49:12;4.88;;;3.72;;
19593;SDS011;9944;48.240;16.478;2022-10-17T18:53:20;5.25;;;3.83;;
19593;SDS011;9944;48.240;16.478;2022-10-17T18:57:23;6.57;;;4.10;;
19593;SDS011;9944;48.240;16.478;2022-10-17T19:01:27;5.32;;;3.63;;
19593;SDS011;9944;48.240;16.478;2022-10-17T19:05:30;5.00;;;4.30;;
19593;SDS011;9944;48.240;16.478;2022-10-17T19:09:35;5.13;;;4.10;;
19593;SDS011;9944;48.240;16.478;2022-10-17T19:13:38;5.40;;;3.72;;
19593;SDS011;9944;48.240;16.478;2022-10-17T19:17:42;5.30;;;3.50;;
19593;SDS011;9944;48.240;16.478;2022-10-17T19:21:45;6.68;;;4.28;;
19593;SDS011;9944;48.240;16.478;2022-10-17T19:25:49;8.23;;;4.53;;
19593;SDS011;9944;48.240;16.478;2022-10-17T19:29:56;5.82;;;3.70;;
19593;SDS011;9944;48.240;16.478;2022-10-17T19:33:59;6.93;;;4.03;;
19593;SDS011;9944;48.240;16.478;2022-10-17T19:38:02;6.65;;;4.22;;
19593;SDS011;9944;48.240;16.478;2022-10-17T19:42:06;9.05;;;4.32;;
19593;SDS011;9944;48.240;16.478;2022-10-17T19:46:12;5.95;;;4.10;;
19593;SDS011;9944;48.240;16.478;2022-10-17T19:50:16;6.05;;;4.13;;
19593;SDS011;9944;48.240;16.478;2022-10-17T19:54:19;5.80;;;4.20;;
19593;SDS011;9944;48.240;16.478;2022-10-17T19:58:23;6.28;;;4.00;;
19593;SDS011;9944;48.240;16.478;2022-10-17T20:02:27;6.95;;;4.10;;
19593;SDS011;9944;48.240;16.478;2022-10-17T20:06:30;6.10;;;4.00;;
19593;SDS011;9944;48.240;16.478;2022-10-17T20:10:34;6.03;;;4.43;;
19593;SDS011;9944;48.240;16.478;2022-10-17T20:14:38;6.82;;;3.75;;
19593;SDS011;9944;48.240;16.478;2022-10-17T20:18:41;7.28;;;4.25;;
19593;SDS011;9944;48.240;16.478;2022-10-17T20:22:45;6.07;;;4.15;;
19593;SDS011;9944;48.240;16.478;2022-10-17T20:26:47;5.82;;;3.83;;
19593;SDS011;9944;48.240;16.478;2022-10-17T20:30:52;6.10;;;4.78;;
19593;SDS011;9944;48.240;16.478;2022-10-17T20:34:55;6.10;;;4.30;;
19593;SDS011;9944;48.240;16.478;2022-10-17T20:38:59;6.68;;;4.65;;
19593;SDS011;9944;48.240;16.478;2022-10-17T20:43:02;6.68;;;4.20;;
19593;SDS011;9944;48.240;16.478;2022-10-17T20:47:06;10.05;;;4.90;;
19593;SDS011;9944;48.240;16.478;2022-10-17T20:51:21;7.13;;;4.40;;
19593;SDS011;9944;48.240;16.478;2022-10-17T20:55:24;4.07;;;3.58;;
19593;SDS011;9944;48.240;16.478;2022-10-17T20:59:27;6.53;;;4.40;;
19593;SDS011;9944;48.240;16.478;2022-10-17T21:03:31;7.70;;;4.55;;
19593;SDS011;9944;48.240;16.478;2022-10-17T21:07:39;6.07;;;4.15;;
19593;SDS011;9944;48.240;16.478;2022-10-17T21:11:42;7.38;;;5.13;;
19593;SDS011;9944;48.240;16.478;2022-10-17T21:15:45;7.30;;;5.15;;
19593;SDS011;9944;48.240;16.478;2022-10-17T21:19:49;6.18;;;4.53;;
19593;SDS011;9944;48.240;16.478;2022-10-17T21:23:52;7.85;;;4.95;;
19593;SDS011;9944;48.240;16.478;2022-10-17T21:27:57;5.93;;;4.72;;
19593;SDS011;9944;48.240;16.478;2022-10-17T21:32:00;6.72;;;4.60;;
19593;SDS011;9944;48.240;16.478;2022-10-17T21:36:10;7.95;;;5.30;;
19593;SDS011;9944;48.240;16.478;2022-10-17T21:40:14;7.05;;;4.95;;
19593;SDS011;9944;48.240;16.478;2022-10-17T21:44:17;6.50;;;4.90;;
19593;SDS011;9944;48.240;16.478;2022-10-17T21:48:22;6.28;;;5.32;;
19593;SDS011;9944;48.240;16.478;2022-10-17T21:52:26;7.35;;;5.03;;
19593;SDS011;9944;48.240;16.478;2022-10-17T21:56:30;7.50;;;4.88;;
19593;SDS011;9944;48.240;16.478;2022-10-17T22:00:34;5.47;;;4.68;;
19593;SDS011;9944;48.240;16.478;2022-10-17T22:04:37;8.27;;;4.95;;
19593;SDS011;9944;48.240;16.478;2022-10-17T22:08:41;7.25;;;4.85;;
19593;SDS011;9944;48.240;16.478;2022-10-17T22:12:44;8.55;;;5.22;;
19593;SDS011;9944;48.240;16.478;2022-10-17T22:16:48;8.25;;;5.10;;
19593;SDS011;9944;48.240;16.478;2022-10-17T22:20:51;8.15;;;5.07;;
19593;SDS011;9944;48.240;16.478;2022-10-17T22:24:56;8.02;;;5.35;;
19593;SDS011;9944;48.240;16.478;2022-10-17T22:28:59;6.97;;;4.60;;
19593;SDS011;9944;48.240;16.478;2022-10-17T22:33:02;7.40;;;4.95;;
19593;SDS011;9944;48.240;16.478;2022-10-17T22:37:05;6.18;;;4.47;;
19593;SDS011;9944;48.240;16.478;2022-10-17T22:41:09;8.23;;;4.78;;
19593;SDS011;9944;48.240;16.478;2022-10-17T22:45:12;6.95;;;5.05;;
19593;SDS011;9944;48.240;16.478;2022-10-17T22:49:15;6.65;;;4.95;;
19593;SDS011;9944;48.240;16.478;2022-10-17T22:53:19;5.75;;;4.55;;
19593;SDS011;9944;48.240;16.478;2022-10-17T22:57:26;8.13;;;4.97;;
19593;SDS011;9944;48.240;16.478;2022-10-17T23:01:29;8.85;;;5.47;;
19593;SDS011;9944;48.240;16.478;2022-10-17T23:05:32;6.35;;;4.80;;
19593;SDS011;9944;48.240;16.478;2022-10-17T23:09:35;7.47;;;5.57;;
19593;SDS011;9944;48.240;16.478;2022-10-17T23:13:40;7.45;;;4.85;;
19593;SDS011;9944;48.240;16.478;2022-10-17T23:17:43;6.95;;;4.60;;
19593;SDS011;9944;48.240;16.478;2022-10-17T23:21:46;7.07;;;5.13;;
19593;SDS011;9944;48.240;16.478;2022-10-17T23:25:49;7.78;;;4.88;;
19593;SDS011;9944;48.240;16.478;2022-10-17T23:29:54;7.43;;;4.82;;
19593;SDS011;9944;48.240;16.478;2022-10-17T23:33:57;6.80;;;4.82;;
19593;SDS011;9944;48.240;16.478;2022-10-17T23:38:00;5.88;;;4.22;;
19593;SDS011;9944;48.240;16.478;2022-10-17T23:42:04;8.00;;;5.00;;
19593;SDS011;9944;48.240;16.478;2022-10-17T23:46:08;7.50;;;5.00;;
19593;SDS011;9944;48.240;16.478;2022-10-17T23:50:11;8.27;;;4.93;;
19593;SDS011;9944;48.240;16.478;2022-10-17T23:54:14;6.18;;;4.53;;
19593;SDS011;9944;48.240;16.478;2022-10-17T23:58:17;6.63;;;4.70;;
